Time;durP1;ratioP1;P1;durP2;ratioP2;P2;SDS_P1;SDS_P2;PMS_P1;PMS_P2;Temp;Humidity;BMP_temperature;BMP_pressure;BME280_temperature;BME280_humidity;BME280_pressure;Samples;Min_cycle;Max_cycle;Signal;HPM_P1;HPM_P2
2023/04/04 00:00:47;;;;;;;;;;;;;;;5.67;97.39;99997.53;4938755;28;20056;-47
2023/04/04 00:03:12;;;;;;;;;;;;;;;5.86;98.92;100006.13;4940958;28;20274;-46
2023/04/04 00:05:38;;;;;;;;;;;;;;;6.28;99.41;99997.72;4936327;28;19964;-46
2023/04/04 00:08:03;;;;;;;;;;;;;;;6.78;98.67;99990.94;4938642;28;20036;-48
2023/04/04 00:10:29;;;;;;;;;;;;;;;6.99;96.53;99964.44;4938749;28;19914;-46
2023/04/04 00:12:54;;;;;;;;;;;;;;;6.73;97.46;99984.09;4937113;28;19926;-47
2023/04/04 00:15:19;;;;;;;;;;;;;;;6.62;99.26;100007.16;4939776;28;20266;-47
2023/04/04 00:17:45;;;;;;;;;;;;;;;5.93;100.00;100015.53;4935786;28;19926;-48
2023/04/04 00:20:10;;;;;;;;;;;;;;;6.43;100.00;100021.63;4935621;28;21159;-45
2023/04/04 00:22:36;;;;;;;;;;;;;;;6.14;99.50;99999.41;4938944;28;19918;-47
2023/04/04 00:25:01;;;;;;;;;;;;;;;6.75;99.88;99997.75;4935935;28;20647;-47
2023/04/04 00:27:27;;;;;;;;;;;;;;;7.10;100.00;100000.28;4941554;28;19973;-41
2023/04/04 00:29:52;;;;;;;;;;;;;;;7.15;98.29;99984.91;4951218;28;19918;-41
2023/04/04 00:32:17;;;;;;;;;;;;;;;6.98;96.22;99967.00;4951121;28;20429;-41
2023/04/04 00:34:43;;;;;;;;;;;;;;;7.75;94.78;99952.22;4953514;28;20433;-41
2023/04/04 00:37:11;;;;;;;;;;;;;;;7.76;92.57;99920.59;4950901;28;19932;-41
2023/04/04 00:39:36;;;;;;;;;;;;;;;7.58;91.96;99925.81;4948748;28;19918;-41
2023/04/04 00:42:02;;;;;;;;;;;;;;;7.70;91.88;99930.88;4947344;28;19920;-41
2023/04/04 00:44:29;;;;;;;;;;;;;;;7.59;92.10;99932.63;4948167;28;20382;-41
2023/04/04 00:46:54;;;;;;;;;;;;;;;7.53;93.01;99942.06;4944749;28;19918;-41
2023/04/04 00:49:20;;;;;;;;;;;;;;;7.30;93.02;99952.41;4947721;28;20013;-41
2023/04/04 00:51:45;;;;;;;;;;;;;;;6.28;95.94;99984.94;4946945;28;20424;-41
2023/04/04 00:54:10;;;;;;;;;;;;;;;6.58;99.41;100010.56;4947265;28;19922;-41
2023/04/04 00:56:36;;;;;;;;;;;;;;;7.51;94.22;99951.47;4945590;28;19923;-41
2023/04/04 00:59:01;;;;;;;;;;;;;;;6.68;93.70;99955.94;4946260;28;19926;-41
2023/04/04 01:01:27;;;;;;;;;;;;;;;5.31;99.29;100028.88;4947078;28;19919;-41
2023/04/04 01:03:52;;;;;;;;;;;;;;;5.30;100.00;100061.22;4946405;28;19971;-41
2023/04/04 01:06:17;;;;;;;;;;;;;;;6.14;100.00;100035.22;4946456;28;19956;-41
2023/04/04 01:08:43;;;;;;;;;;;;;;;5.18;100.00;100068.81;4949140;28;19953;-41
2023/04/04 01:11:08;;;;;;;;;;;;;;;5.22;100.00;100070.53;4949841;28;19918;-41
2023/04/04 01:13:33;;;;;;;;;;;;;;;5.73;100.00;100058.91;4948926;28;19929;-41
2023/04/04 01:15:59;;;;;;;;;;;;;;;6.06;100.00;100036.91;4948765;28;21055;-41
2023/04/04 01:18:25;;;;;;;;;;;;;;;6.02;100.00;100024.94;4949133;28;19966;-44
2023/04/04 01:21:00;;;;;;;;;;;;;;;6.21;100.00;100025.88;4943751;28;19965;-44
2023/04/04 01:23:29;;;;;;;;;;;;;;;5.60;100.00;100046.91;4948339;28;20348;-44
2023/04/04 01:26:01;;;;;;;;;;;;;;;5.78;100.00;100041.03;4943055;28;19926;-46
2023/04/04 01:28:27;;;;;;;;;;;;;;;5.69;100.00;100036.72;4947525;28;19941;-46
2023/04/04 01:30:52;;;;;;;;;;;;;;;5.77;100.00;100032.53;4946546;28;20566;-45
2023/04/04 01:33:36;;;;;;;;;;;;;;;4.39;100.00;100067.28;4947698;28;19922;-46
2023/04/04 01:36:21;;;;;;;;;;;;;;;4.72;100.00;100093.94;4946123;28;20035;-45
2023/04/04 01:38:53;;;;;;;;;;;;;;;4.35;100.00;100088.47;4945829;28;19922;-46
2023/04/04 01:41:19;;;;;;;;;;;;;;;4.76;100.00;100077.81;4945628;28;19933;-45
2023/04/04 01:43:45;;;;;;;;;;;;;;;4.55;100.00;100091.25;4946526;28;20152;-46
2023/04/04 01:46:11;;;;;;;;;;;;;;;3.83;100.00;100093.84;4946564;28;20608;-46
2023/04/04 01:48:36;;;;;;;;;;;;;;;4.20;100.00;100107.03;4947833;28;19925;-45
2023/04/04 01:51:01;;;;;;;;;;;;;;;4.46;100.00;100091.16;4947049;28;19929;-48
2023/04/04 01:53:26;;;;;;;;;;;;;;;4.11;100.00;100074.63;4947334;28;20034;-48
2023/04/04 01:55:53;;;;;;;;;;;;;;;4.11;100.00;100082.28;4949352;28;20479;-47
2023/04/04 01:58:18;;;;;;;;;;;;;;;3.98;100.00;100082.97;4937598;28;19928;-48
2023/04/04 02:00:43;;;;;;;;;;;;;;;4.21;100.00;100080.69;4947545;28;19922;-48
2023/04/04 02:03:08;;;;;;;;;;;;;;;4.18;100.00;100085.75;4947184;28;19964;-47
2023/04/04 02:05:34;;;;;;;;;;;;;;;4.55;100.00;100086.13;4946442;28;20395;-48
2023/04/04 02:07:59;;;;;;;;;;;;;;;4.15;100.00;100073.81;4946897;28;19914;-48
2023/04/04 02:10:24;;;;;;;;;;;;;;;4.23;100.00;100078.16;4946266;28;21072;-48
2023/04/04 02:12:52;;;;;;;;;;;;;;;3.96;100.00;100070.19;4946976;28;19929;-47
2023/04/04 02:15:18;;;;;;;;;;;;;;;4.39;100.00;100062.16;4945742;28;20204;-48
2023/04/04 02:17:46;;;;;;;;;;;;;;;4.43;100.00;100061.38;4946499;28;20071;-50
2023/04/04 02:20:11;;;;;;;;;;;;;;;4.69;100.00;100063.31;4948090;28;19922;-49
2023/04/04 02:22:37;;;;;;;;;;;;;;;5.26;100.00;100030.53;4946792;28;19950;-47
2023/04/04 02:25:02;;;;;;;;;;;;;;;5.21;100.00;100015.19;4944777;28;19923;-49
2023/04/04 02:27:28;;;;;;;;;;;;;;;4.84;100.00;100007.28;4945856;28;19923;-48
2023/04/04 02:29:54;;;;;;;;;;;;;;;5.34;100.00;100009.31;4945676;28;20479;-48
2023/04/04 02:32:20;;;;;;;;;;;;;;;5.23;100.00;100005.84;4947479;28;19918;-47
2023/04/04 02:34:45;;;;;;;;;;;;;;;5.74;100.00;99989.03;4945698;28;20337;-47
2023/04/04 02:37:10;;;;;;;;;;;;;;;5.07;100.00;99998.94;4946846;28;19926;-48
2023/04/04 02:39:36;;;;;;;;;;;;;;;3.98;100.00;100024.34;4946540;28;19922;-50
2023/04/04 02:42:01;;;;;;;;;;;;;;;4.80;100.00;100041.28;4946574;28;19969;-47
2023/04/04 02:44:26;;;;;;;;;;;;;;;4.93;100.00;100025.22;4946460;28;19918;-47
2023/04/04 02:46:51;;;;;;;;;;;;;;;5.03;100.00;100024.44;4945445;28;19976;-47
2023/04/04 02:49:17;;;;;;;;;;;;;;;5.20;100.00;100003.25;4947443;28;19918;-47
2023/04/04 02:51:42;;;;;;;;;;;;;;;5.17;100.00;99996.44;4945489;28;19974;-48
2023/04/04 02:54:08;;;;;;;;;;;;;;;5.47;100.00;99986.38;4946045;28;19918;-48
2023/04/04 02:56:35;;;;;;;;;;;;;;;5.43;100.00;99973.59;4946534;28;19926;-47
2023/04/04 02:59:02;;;;;;;;;;;;;;;4.23;100.00;99994.88;4948250;28;20390;-48
2023/04/04 03:01:27;;;;;;;;;;;;;;;4.87;100.00;99981.78;4945839;28;20388;-48
2023/04/04 03:03:52;;;;;;;;;;;;;;;5.48;100.00;99975.34;4946752;28;20017;-47
2023/04/04 03:06:18;;;;;;;;;;;;;;;5.79;100.00;99966.06;4944213;28;19971;-48
2023/04/04 03:08:43;;;;;;;;;;;;;;;5.22;100.00;99958.16;4946337;28;19965;-47
2023/04/04 03:11:08;;;;;;;;;;;;;;;5.79;100.00;99941.38;4945924;28;19918;-47
2023/04/04 03:13:33;;;;;;;;;;;;;;;5.77;100.00;99937.94;4944878;28;19976;-47
2023/04/04 03:16:01;;;;;;;;;;;;;;;5.27;100.00;99956.50;4943851;28;20025;-47
2023/04/04 03:18:27;;;;;;;;;;;;;;;5.57;100.00;99949.81;4937487;28;19918;-47
2023/04/04 03:20:52;;;;;;;;;;;;;;;6.08;100.00;99938.88;4946411;28;19949;-47
2023/04/04 03:23:17;;;;;;;;;;;;;;;6.08;100.00;99912.47;4941544;28;20009;-47
2023/04/04 03:25:42;;;;;;;;;;;;;;;5.79;100.00;99949.03;4942063;28;19923;-46
2023/04/04 03:28:08;;;;;;;;;;;;;;;5.62;100.00;99950.69;4945334;28;19929;-47
2023/04/04 03:30:34;;;;;;;;;;;;;;;5.97;100.00;99929.50;4944941;28;20295;-48
2023/04/04 03:33:02;;;;;;;;;;;;;;;6.15;100.00;99914.16;4945760;28;19918;-47
2023/04/04 03:35:27;;;;;;;;;;;;;;;5.62;100.00;99943.00;4945377;28;19926;-47
2023/04/04 03:37:53;;;;;;;;;;;;;;;5.86;100.00;99914.97;4944985;28;19919;-47
2023/04/04 03:40:18;;;;;;;;;;;;;;;5.72;100.00;99928.53;4946698;28;20375;-48
2023/04/04 03:42:44;;;;;;;;;;;;;;;5.61;100.00;99923.41;4945920;28;19929;-47
2023/04/04 03:45:10;;;;;;;;;;;;;;;4.85;100.00;99932.44;4946377;28;19915;-47
2023/04/04 03:47:35;;;;;;;;;;;;;;;5.80;100.00;99927.72;4944011;28;19922;-47
2023/04/04 03:50:01;;;;;;;;;;;;;;;5.18;100.00;99923.25;4945628;28;19979;-47
2023/04/04 03:52:26;;;;;;;;;;;;;;;5.43;100.00;99930.16;4945360;28;19922;-48
2023/04/04 03:54:51;;;;;;;;;;;;;;;5.17;100.00;99927.50;4944677;28;19957;-47
2023/04/04 03:57:17;;;;;;;;;;;;;;;5.48;100.00;99919.13;4944692;28;20286;-48
2023/04/04 03:59:42;;;;;;;;;;;;;;;5.43;100.00;99922.50;4945109;28;20366;-47
2023/04/04 04:02:07;;;;;;;;;;;;;;;4.90;100.00;99951.16;4945438;28;19994;-46
2023/04/04 04:04:32;;;;;;;;;;;;;;;4.29;100.00;99946.47;4947894;28;19918;-47
2023/04/04 04:06:57;;;;;;;;;;;;;;;5.14;100.00;99954.72;4948126;28;19929;-47
2023/04/04 04:09:23;;;;;;;;;;;;;;;4.78;100.00;99963.84;4949588;28;19922;-47
2023/04/04 04:11:48;;;;;;;;;;;;;;;4.60;100.00;99980.72;4948327;28;19929;-48
2023/04/04 04:14:13;;;;;;;;;;;;;;;4.61;100.00;99974.81;4949421;28;19922;-47
2023/04/04 04:16:39;;;;;;;;;;;;;;;4.11;100.00;99995.59;4947896;28;20016;-47
2023/04/04 04:19:04;;;;;;;;;;;;;;;3.86;100.00;100008.94;4940030;28;19983;-46
2023/04/04 04:21:29;;;;;;;;;;;;;;;3.94;100.00;99999.66;4949127;28;20434;-46
2023/04/04 04:23:55;;;;;;;;;;;;;;;4.27;100.00;100000.88;4947849;28;20114;-47
2023/04/04 04:26:20;;;;;;;;;;;;;;;3.60;100.00;100009.44;4946091;28;19925;-47
2023/04/04 04:28:47;;;;;;;;;;;;;;;3.88;100.00;100014.91;4947627;28;20643;-47
2023/04/04 04:31:12;;;;;;;;;;;;;;;3.41;100.00;100002.44;4948682;28;19922;-47
2023/04/04 04:33:37;;;;;;;;;;;;;;;3.54;100.00;100017.03;4948578;28;19952;-47
2023/04/04 04:36:03;;;;;;;;;;;;;;;3.45;100.00;100034.75;4947003;28;19922;-46
2023/04/04 04:38:28;;;;;;;;;;;;;;;3.90;100.00;100033.59;4948305;28;20013;-46
2023/04/04 04:40:54;;;;;;;;;;;;;;;4.14;100.00;100017.72;4947882;28;19971;-46
2023/04/04 04:43:19;;;;;;;;;;;;;;;3.92;100.00;100022.59;4947949;28;20007;-46
2023/04/04 04:45:44;;;;;;;;;;;;;;;3.82;100.00;99995.28;4947720;28;19961;-47
2023/04/04 04:48:09;;;;;;;;;;;;;;;4.00;100.00;99999.72;4951929;28;19914;-46
2023/04/04 04:50:35;;;;;;;;;;;;;;;4.24;100.00;100004.22;4947825;28;19926;-46
2023/04/04 04:53:00;;;;;;;;;;;;;;;4.29;100.00;99992.38;4949387;28;19926;-46
2023/04/04 04:55:26;;;;;;;;;;;;;;;4.34;100.00;99994.97;4947412;28;19926;-46
2023/04/04 04:57:51;;;;;;;;;;;;;;;4.34;100.00;99985.63;4947960;28;19957;-46
2023/04/04 05:00:17;;;;;;;;;;;;;;;4.73;100.00;99983.41;4948479;28;19984;-46
2023/04/04 05:02:42;;;;;;;;;;;;;;;4.21;100.00;99977.84;4947061;28;19929;-46
2023/04/04 05:05:07;;;;;;;;;;;;;;;4.66;100.00;99984.19;4948970;28;20036;-46
2023/04/04 05:07:33;;;;;;;;;;;;;;;4.43;100.00;99966.16;4947099;28;19992;-46
2023/04/04 05:09:58;;;;;;;;;;;;;;;5.15;100.00;99946.22;4938773;28;19918;-47
2023/04/04 05:12:23;;;;;;;;;;;;;;;5.38;100.00;99929.31;4947009;28;19922;-46
2023/04/04 05:14:49;;;;;;;;;;;;;;;5.54;100.00;99924.22;4948259;28;19972;-47
2023/04/04 05:17:14;;;;;;;;;;;;;;;5.49;100.00;99933.59;4946777;28;19934;-46
2023/04/04 05:19:40;;;;;;;;;;;;;;;5.69;100.00;99915.78;4948074;28;20391;-47
2023/04/04 05:22:06;;;;;;;;;;;;;;;5.79;100.00;99903.03;4946667;28;19937;-47
2023/04/04 05:24:31;;;;;;;;;;;;;;;5.74;100.00;99902.13;4946141;28;19925;-46
2023/04/04 05:26:56;;;;;;;;;;;;;;;5.83;100.00;99894.50;4936435;28;19948;-46
2023/04/04 05:29:22;;;;;;;;;;;;;;;5.89;100.00;99903.03;4948440;28;20548;-46
2023/04/04 05:31:47;;;;;;;;;;;;;;;5.99;100.00;99899.66;4947875;28;19948;-47
2023/04/04 05:34:13;;;;;;;;;;;;;;;4.81;100.00;99926.47;4948434;28;19922;-46
2023/04/04 05:36:38;;;;;;;;;;;;;;;5.85;100.00;99923.47;4946490;28;19922;-46
2023/04/04 05:39:06;;;;;;;;;;;;;;;5.97;100.00;99902.22;4947896;28;20573;-47
2023/04/04 05:41:31;;;;;;;;;;;;;;;5.60;100.00;99916.59;4946092;28;20105;-47
2023/04/04 05:43:56;;;;;;;;;;;;;;;5.55;100.00;99931.06;4947288;28;19976;-46
2023/04/04 05:46:22;;;;;;;;;;;;;;;5.82;100.00;99926.03;4946182;28;19978;-46
2023/04/04 05:48:49;;;;;;;;;;;;;;;5.48;100.00;99929.34;4947260;28;19922;-46
2023/04/04 05:51:14;;;;;;;;;;;;;;;5.45;100.00;99941.25;4946672;28;19922;-46
2023/04/04 05:53:39;;;;;;;;;;;;;;;5.04;100.00;99969.16;4946991;28;19923;-47
2023/04/04 05:56:05;;;;;;;;;;;;;;;5.79;100.00;99956.69;4949787;28;19982;-46
2023/04/04 05:58:30;;;;;;;;;;;;;;;5.84;100.00;99957.56;4945977;28;21194;-45
2023/04/04 06:00:55;;;;;;;;;;;;;;;6.05;100.00;99938.88;4946367;28;19922;-46
2023/04/04 06:03:20;;;;;;;;;;;;;;;6.34;100.00;99926.97;4945141;28;19933;-46
2023/04/04 06:05:48;;;;;;;;;;;;;;;5.79;100.00;99936.25;4946440;28;20832;-47
2023/04/04 06:08:14;;;;;;;;;;;;;;;5.96;100.00;99963.59;4946594;28;19979;-46
2023/04/04 06:10:39;;;;;;;;;;;;;;;6.27;100.00;99960.22;4947192;28;19925;-46
2023/04/04 06:13:04;;;;;;;;;;;;;;;6.72;100.00;99941.44;4947237;28;19926;-47
2023/04/04 06:15:30;;;;;;;;;;;;;;;6.73;100.00;99946.56;4945000;28;19926;-47
2023/04/04 06:17:55;;;;;;;;;;;;;;;6.56;100.00;99966.19;4947179;28;19990;-46
2023/04/04 06:20:22;;;;;;;;;;;;;;;6.08;100.00;99989.16;4946726;28;20228;-46
2023/04/04 06:22:48;;;;;;;;;;;;;;;7.17;100.00;99958.44;4946518;28;19918;-47
2023/04/04 06:25:13;;;;;;;;;;;;;;;7.36;100.00;99956.66;4943149;28;20772;-46
2023/04/04 06:27:39;;;;;;;;;;;;;;;7.61;100.00;99938.63;4946408;28;19922;-46
2023/04/04 06:30:04;;;;;;;;;;;;;;;7.99;100.00;99919.59;4946896;28;19952;-47
2023/04/04 06:32:30;;;;;;;;;;;;;;;8.48;100.00;99921.81;4944813;28;20417;-47
2023/04/04 06:34:56;;;;;;;;;;;;;;;8.77;99.59;99912.13;4944978;28;20393;-46
2023/04/04 06:37:21;;;;;;;;;;;;;;;6.75;98.48;99924.38;4944455;28;19929;-46
2023/04/04 06:39:46;;;;;;;;;;;;;;;8.35;99.70;99921.88;4944901;28;19926;-46
2023/04/04 06:42:11;;;;;;;;;;;;;;;8.62;95.74;99889.19;4945970;28;19922;-46
2023/04/04 06:44:36;;;;;;;;;;;;;;;8.67;93.81;99882.28;4945541;28;19968;-47
2023/04/04 06:47:02;;;;;;;;;;;;;;;9.07;93.35;99876.69;4945470;28;20021;-46
2023/04/04 06:49:27;;;;;;;;;;;;;;;7.23;89.70;99879.00;4938009;28;19926;-46
2023/04/04 06:51:53;;;;;;;;;;;;;;;8.76;90.87;99877.03;4947855;28;19976;-46
2023/04/04 06:54:18;;;;;;;;;;;;;;;9.04;90.14;99866.44;4945925;28;19932;-46
2023/04/04 06:56:43;;;;;;;;;;;;;;;9.26;90.14;99873.88;4942323;28;20303;-47
2023/04/04 06:59:10;;;;;;;;;;;;;;;9.79;89.11;99862.03;4947102;28;19919;-46
2023/04/04 07:01:36;;;;;;;;;;;;;;;10.17;87.38;99847.69;4945975;28;20376;-46
2023/04/04 07:04:01;;;;;;;;;;;;;;;10.45;86.91;99851.53;4945500;28;19918;-46
2023/04/04 07:06:28;;;;;;;;;;;;;;;9.57;85.58;99854.59;4945647;28;19922;-47
2023/04/04 07:08:53;;;;;;;;;;;;;;;9.15;86.35;99874.88;4945597;28;19918;-47
2023/04/04 07:11:19;;;;;;;;;;;;;;;10.10;86.39;99861.53;4946132;28;20315;-47
2023/04/04 07:13:44;;;;;;;;;;;;;;;9.88;85.47;99861.88;4945585;28;19926;-47
2023/04/04 07:16:10;;;;;;;;;;;;;;;10.09;85.49;99865.00;4947500;28;20414;-48
2023/04/04 07:18:35;;;;;;;;;;;;;;;7.82;86.14;99897.47;4946251;28;20070;-47
2023/04/04 07:21:01;;;;;;;;;;;;;;;7.22;86.97;99905.47;4941104;28;20272;-47
2023/04/04 07:23:26;;;;;;;;;;;;;;;9.18;87.51;99879.97;4945434;28;19922;-51
2023/04/04 07:25:52;;;;;;;;;;;;;;;8.21;84.88;99872.41;4944771;28;20041;-47
2023/04/04 07:28:17;;;;;;;;;;;;;;;7.11;89.04;99931.09;4945865;28;20017;-46
2023/04/04 07:30:42;;;;;;;;;;;;;;;8.72;87.70;99884.78;4946420;28;19929;-47
2023/04/04 07:33:07;;;;;;;;;;;;;;;8.05;86.83;99891.31;4947581;28;19918;-47
2023/04/04 07:35:33;;;;;;;;;;;;;;;8.43;91.76;99928.72;4944824;28;19953;-46
2023/04/04 07:37:58;;;;;;;;;;;;;;;7.53;90.43;99925.84;4943536;28;20074;-48
2023/04/04 07:40:24;;;;;;;;;;;;;;;8.45;89.69;99907.28;4945044;28;20665;-47
2023/04/04 07:42:50;;;;;;;;;;;;;;;8.52;89.97;99910.66;4945339;28;20540;-47
2023/04/04 07:45:15;;;;;;;;;;;;;;;8.69;86.94;99875.41;4946136;28;20876;-47
2023/04/04 07:47:41;;;;;;;;;;;;;;;8.34;88.95;99898.78;4946477;28;20035;-48
2023/04/04 07:50:07;;;;;;;;;;;;;;;7.36;89.91;99918.22;4944728;28;19922;-47
2023/04/04 07:52:32;;;;;;;;;;;;;;;8.48;90.57;99901.28;4945570;28;19928;-47
2023/04/04 07:54:59;;;;;;;;;;;;;;;7.56;87.38;99891.66;4944505;28;19922;-47
2023/04/04 07:57:25;;;;;;;;;;;;;;;8.82;85.99;99854.72;4946456;28;20074;-47
2023/04/04 07:59:50;;;;;;;;;;;;;;;7.79;86.02;99871.00;4944601;28;19930;-48
2023/04/04 08:02:15;;;;;;;;;;;;;;;8.45;83.97;99847.41;4945698;28;20528;-47
2023/04/04 08:04:40;;;;;;;;;;;;;;;10.09;83.35;99819.53;4945268;28;19918;-47
2023/04/04 08:07:06;;;;;;;;;;;;;;;8.99;79.65;99806.56;4945611;28;19924;-47
2023/04/04 08:09:33;;;;;;;;;;;;;;;8.10;81.13;99838.28;4944831;28;19919;-47
2023/04/04 08:11:58;;;;;;;;;;;;;;;8.52;79.83;99820.81;4945186;28;19925;-47
2023/04/04 08:14:24;;;;;;;;;;;;;;;10.36;79.09;99784.75;4945034;28;20379;-48
2023/04/04 08:16:49;;;;;;;;;;;;;;;9.56;77.06;99785.22;4945578;28;19929;-48
2023/04/04 08:19:15;;;;;;;;;;;;;;;10.34;77.17;99783.94;4945493;28;19923;-45
2023/04/04 08:21:41;;;;;;;;;;;;;;;8.53;74.70;99799.38;4944835;28;20448;-47
2023/04/04 08:24:07;;;;;;;;;;;;;;;9.89;75.46;99783.81;4944913;28;20279;-48
2023/04/04 08:26:32;;;;;;;;;;;;;;;10.87;75.54;99774.28;4945471;28;19969;-48
2023/04/04 08:28:57;;;;;;;;;;;;;;;9.04;77.63;99821.94;4944151;28;19971;-47
2023/04/04 08:31:22;;;;;;;;;;;;;;;8.05;75.79;99814.38;4945664;28;19923;-48
2023/04/04 08:33:48;;;;;;;;;;;;;;;10.17;78.02;99797.09;4944646;28;20344;-47
2023/04/04 08:36:13;;;;;;;;;;;;;;;10.32;74.83;99777.97;4943840;28;19919;-48
2023/04/04 08:38:38;;;;;;;;;;;;;;;10.04;73.71;99775.84;4945116;28;20358;-50
2023/04/04 08:41:04;;;;;;;;;;;;;;;8.22;72.45;99788.56;4944361;28;19923;-47
2023/04/04 08:43:30;;;;;;;;;;;;;;;8.19;75.98;99822.81;4945541;28;19938;-47
2023/04/04 08:45:55;;;;;;;;;;;;;;;8.18;77.98;99836.50;4943037;28;20018;-48
2023/04/04 08:48:22;;;;;;;;;;;;;;;9.10;78.68;99825.28;4943754;28;20013;-47
2023/04/04 08:50:48;;;;;;;;;;;;;;;9.35;75.74;99801.78;4946014;28;19915;-47
2023/04/04 08:53:13;;;;;;;;;;;;;;;8.93;73.80;99783.53;4946829;28;19918;-47
2023/04/04 08:55:38;;;;;;;;;;;;;;;8.62;78.03;99842.09;4946486;28;20027;-47
2023/04/04 08:58:04;;;;;;;;;;;;;;;9.11;79.33;99837.25;4949064;28;19958;-48
2023/04/04 09:00:29;;;;;;;;;;;;;;;9.72;79.68;99835.56;4948016;28;19922;-47
2023/04/04 09:02:56;;;;;;;;;;;;;;;9.15;78.79;99827.78;4948623;28;19922;-48
2023/04/04 09:05:21;;;;;;;;;;;;;;;10.04;78.47;99817.03;4945760;28;19918;-48
2023/04/04 09:07:47;;;;;;;;;;;;;;;9.17;73.25;99790.91;4945137;28;19929;-49
2023/04/04 09:10:12;;;;;;;;;;;;;;;10.47;78.41;99815.47;4947073;28;19923;-50
2023/04/04 09:12:39;;;;;;;;;;;;;;;10.60;74.10;99787.72;4948353;28;19918;-48
2023/04/04 09:15:04;;;;;;;;;;;;;;;9.99;76.24;99823.97;4947935;28;21495;-48
2023/04/04 09:17:29;;;;;;;;;;;;;;;10.16;78.04;99833.13;4944738;28;19926;-48
2023/04/04 09:19:55;;;;;;;;;;;;;;;11.11;74.73;99787.56;4948988;28;19923;-47
2023/04/04 09:22:20;;;;;;;;;;;;;;;10.80;70.68;99757.25;4947389;28;19929;-47
2023/04/04 09:24:47;;;;;;;;;;;;;;;10.57;74.56;99801.53;4946419;28;20194;-47
2023/04/04 09:27:12;;;;;;;;;;;;;;;11.41;72.49;99774.88;4945686;28;19923;-47
2023/04/04 09:29:38;;;;;;;;;;;;;;;9.71;71.83;99794.41;4945829;28;19926;-48
2023/04/04 09:32:05;;;;;;;;;;;;;;;9.79;70.30;99784.84;4948027;28;20234;-48
2023/04/04 09:34:31;;;;;;;;;;;;;;;9.21;73.86;99818.28;4938737;28;19922;-48
2023/04/04 09:36:57;;;;;;;;;;;;;;;9.32;75.45;99810.41;4944089;28;20337;-48
2023/04/04 09:39:22;;;;;;;;;;;;;;;12.20;75.86;99789.28;4947038;28;19925;-48
2023/04/04 09:41:48;;;;;;;;;;;;;;;10.64;67.32;99737.84;4946461;28;19922;-48
2023/04/04 09:44:13;;;;;;;;;;;;;;;11.36;72.03;99768.94;4946511;28;19926;-47
2023/04/04 09:46:39;;;;;;;;;;;;;;;13.28;66.01;99705.22;4944137;28;20322;-49
2023/04/04 09:49:04;;;;;;;;;;;;;;;9.07;64.52;99753.34;4946159;28;19923;-48
2023/04/04 09:51:40;;;;;;;;;;;;;;;9.86;70.68;99791.59;4937156;28;19926;-48
2023/04/04 09:54:06;;;;;;;;;;;;;;;10.02;72.83;99808.47;4943753;28;19922;-48
2023/04/04 09:56:32;;;;;;;;;;;;;;;10.64;72.46;99784.22;4947602;28;19933;-47
2023/04/04 09:58:57;;;;;;;;;;;;;;;10.63;72.33;99790.25;4945979;28;19922;-50
2023/04/04 10:01:22;;;;;;;;;;;;;;;9.71;74.00;99800.41;4945207;28;20759;-47
2023/04/04 10:03:53;;;;;;;;;;;;;;;11.20;71.29;99766.72;4946657;28;20005;-47
2023/04/04 10:06:18;;;;;;;;;;;;;;;11.46;66.24;99721.44;4946256;28;19941;-48
2023/04/04 10:08:43;;;;;;;;;;;;;;;11.12;65.21;99721.38;4943265;28;20367;-48
2023/04/04 10:11:08;;;;;;;;;;;;;;;11.48;70.72;99758.34;4945058;28;19925;-48
2023/04/04 10:13:35;;;;;;;;;;;;;;;12.32;66.65;99716.69;4943700;28;19919;-48
2023/04/04 10:16:01;;;;;;;;;;;;;;;10.45;71.42;99791.47;4945192;28;20430;-47
2023/04/04 10:18:30;;;;;;;;;;;;;;;10.18;68.68;99746.44;4945866;28;19922;-47
2023/04/04 10:20:56;;;;;;;;;;;;;;;11.33;71.38;99766.44;4946941;28;19949;-50
2023/04/04 10:23:23;;;;;;;;;;;;;;;11.22;69.91;99752.06;4943117;28;20000;-49
2023/04/04 10:25:49;;;;;;;;;;;;;;;10.05;69.13;99750.97;4950015;28;19918;-47
2023/04/04 10:28:16;;;;;;;;;;;;;;;11.52;69.35;99736.78;4949398;28;20371;-49
2023/04/04 10:30:43;;;;;;;;;;;;;;;11.61;66.70;99709.88;4946550;28;19915;-48
2023/04/04 10:33:11;;;;;;;;;;;;;;;12.07;64.03;99667.44;4944356;28;19954;-47
2023/04/04 10:35:37;;;;;;;;;;;;;;;11.23;65.67;99704.78;4943139;28;19931;-49
2023/04/04 10:38:02;;;;;;;;;;;;;;;10.96;64.75;99706.25;4943837;28;19999;-50
2023/04/04 10:40:32;;;;;;;;;;;;;;;12.76;64.47;99678.38;4941939;28;20005;-48
2023/04/04 10:42:58;;;;;;;;;;;;;;;12.72;67.13;99713.78;4944480;28;19934;-50
2023/04/04 10:45:23;;;;;;;;;;;;;;;11.48;65.89;99699.03;4946346;28;20303;-48
2023/04/04 10:47:48;;;;;;;;;;;;;;;10.67;63.71;99696.56;4944441;28;20416;-49
2023/04/04 10:50:14;;;;;;;;;;;;;;;12.26;64.00;99683.25;4943830;28;19926;-48
2023/04/04 10:52:40;;;;;;;;;;;;;;;10.54;63.69;99697.72;4944362;28;20463;-48
2023/04/04 10:55:07;;;;;;;;;;;;;;;10.14;63.82;99709.59;4943563;28;19929;-48
2023/04/04 10:57:33;;;;;;;;;;;;;;;12.03;61.29;99645.19;4944923;28;20782;-50
2023/04/04 11:00:09;;;;;;;;;;;;;;;11.77;65.85;99694.84;4942386;28;19928;-50
2023/04/04 11:02:47;;;;;;;;;;;;;;;12.67;57.95;99611.47;4944486;28;19927;-49
2023/04/04 11:05:32;;;;;;;;;;;;;;;12.63;53.62;99584.84;4944723;28;19926;-48
2023/04/04 11:07:58;;;;;;;;;;;;;;;13.45;65.00;99675.38;4946332;28;19969;-48
2023/04/04 11:10:28;;;;;;;;;;;;;;;9.59;58.88;99660.00;4944693;28;20343;-48
2023/04/04 11:12:54;;;;;;;;;;;;;;;9.98;62.86;99692.75;4942554;28;19922;-48
2023/04/04 11:15:22;;;;;;;;;;;;;;;11.60;61.34;99657.44;4943834;28;19994;-47
2023/04/04 11:17:48;;;;;;;;;;;;;;;13.13;63.98;99664.31;4943311;28;19944;-49
2023/04/04 11:20:33;;;;;;;;;;;;;;;10.17;61.39;99665.81;4946016;28;19922;-48
2023/04/04 11:23:02;;;;;;;;;;;;;;;11.04;65.99;99698.38;4941226;28;19933;-51
2023/04/04 11:25:38;;;;;;;;;;;;;;;11.59;65.46;99666.09;4943315;28;20253;-47
2023/04/04 11:28:07;;;;;;;;;;;;;;;11.70;63.48;99642.59;4943576;28;19919;-48
2023/04/04 11:30:43;;;;;;;;;;;;;;;12.26;66.99;99680.69;4944698;28;20532;-48
2023/04/04 11:33:10;;;;;;;;;;;;;;;13.36;65.30;99659.28;4944368;28;19946;-48
2023/04/04 11:35:39;;;;;;;;;;;;;;;11.71;60.50;99637.38;4944382;28;20023;-48
2023/04/04 11:38:10;;;;;;;;;;;;;;;13.73;58.15;99600.22;4945147;28;19918;-48
2023/04/04 11:40:37;;;;;;;;;;;;;;;12.77;56.07;99599.91;4941521;28;19918;-48
2023/04/04 11:43:09;;;;;;;;;;;;;;;15.00;62.00;99623.13;4935148;28;20021;-49
2023/04/04 11:45:36;;;;;;;;;;;;;;;12.57;52.31;99569.56;4945567;28;19948;-48
2023/04/04 11:48:02;;;;;;;;;;;;;;;12.61;52.68;99575.47;4945619;28;19918;-48
2023/04/04 11:50:33;;;;;;;;;;;;;;;13.44;55.01;99593.50;4945278;28;19937;-48
2023/04/04 11:52:58;;;;;;;;;;;;;;;12.74;53.51;99579.34;4945300;28;19918;-48
2023/04/04 11:55:25;;;;;;;;;;;;;;;13.59;54.24;99582.59;4945125;28;19926;-49
2023/04/04 11:57:51;;;;;;;;;;;;;;;14.00;52.93;99577.66;4947486;28;19919;-50
2023/04/04 12:00:34;;;;;;;;;;;;;;;12.98;52.62;99581.16;4945571;28;19995;-48
2023/04/04 12:02:59;;;;;;;;;;;;;;;13.22;56.89;99614.03;4945490;28;19958;-49
2023/04/04 12:05:25;;;;;;;;;;;;;;;12.90;55.54;99603.81;4946083;28;19997;-50
2023/04/04 12:07:51;;;;;;;;;;;;;;;12.57;57.52;99621.22;4943934;28;20532;-48
2023/04/04 12:10:17;;;;;;;;;;;;;;;13.90;56.83;99610.00;4946453;28;20495;-50
2023/04/04 12:12:44;;;;;;;;;;;;;;;15.03;54.00;99571.13;4942987;28;19929;-50
2023/04/04 12:15:09;;;;;;;;;;;;;;;14.17;57.88;99611.56;4945788;28;19922;-48
2023/04/04 12:17:38;;;;;;;;;;;;;;;14.42;59.16;99600.31;4943505;28;19934;-49
2023/04/04 12:20:06;;;;;;;;;;;;;;;13.11;52.48;99544.53;4944306;28;19918;-48
2023/04/04 12:22:34;;;;;;;;;;;;;;;13.56;55.65;99568.03;4944417;28;20240;-48
2023/04/04 12:25:00;;;;;;;;;;;;;;;12.77;53.10;99556.00;4946759;28;19958;-48
2023/04/04 12:27:25;;;;;;;;;;;;;;;14.87;56.85;99570.91;4947928;28;20041;-48
2023/04/04 12:29:50;;;;;;;;;;;;;;;14.26;54.49;99563.75;4948394;28;20422;-48
2023/04/04 12:32:16;;;;;;;;;;;;;;;15.18;54.47;99544.53;4948746;28;19918;-48
2023/04/04 12:34:42;;;;;;;;;;;;;;;15.41;56.99;99564.31;4947245;28;19922;-48
2023/04/04 12:37:08;;;;;;;;;;;;;;;12.55;49.83;99527.41;4947438;28;19926;-48
2023/04/04 12:39:33;;;;;;;;;;;;;;;14.30;53.35;99533.38;4946142;28;19929;-49
2023/04/04 12:42:00;;;;;;;;;;;;;;;14.60;51.71;99524.44;4949168;28;19918;-47